Time;durP1;ratioP1;P1;durP2;ratioP2;P2;SDS_P1;SDS_P2;PMS_P1;PMS_P2;Temp;Humidity;BMP_temperature;BMP_pressure;BME280_temperature;BME280_humidity;BME280_pressure;Samples;Min_cycle;Max_cycle;Signal;HPM_P1;HPM_P2
2022/06/14 00:01:10;;;;;;;;;;;25.30;99.90;;;;;;5112065;28;19912;-67
2022/06/14 00:03:40;;;;;;;;;;;25.20;99.90;;;;;;5109852;28;19987;-67
2022/06/14 00:06:05;;;;;;;;;;;25.20;99.90;;;;;;5106397;28;20007;-66
2022/06/14 00:08:31;;;;;;;;;;;25.20;99.90;;;;;;5111898;28;20304;-67
2022/06/14 00:10:58;;;;;;;;;;;25.20;99.90;;;;;;5106600;28;19915;-68
2022/06/14 00:13:24;;;;;;;;;;;25.20;99.90;;;;;;5100496;28;19907;-68
2022/06/14 00:15:50;;;;;;;;;;;25.10;99.90;;;;;;5103286;28;19955;-67
2022/06/14 00:18:16;;;;;;;;;;;25.10;99.90;;;;;;5107603;28;19946;-69
2022/06/14 00:20:43;;;;;;;;;;;25.20;99.90;;;;;;5097434;28;19908;-68
2022/06/14 00:23:09;;;;;;;;;;;25.10;99.90;;;;;;5102933;28;19930;-68
2022/06/14 00:25:36;;;;;;;;;;;25.00;99.90;;;;;;5105866;28;20369;-68
2022/06/14 00:28:03;;;;;;;;;;;25.00;99.90;;;;;;5102724;28;19969;-68
2022/06/14 00:30:29;;;;;;;;;;;25.00;99.90;;;;;;5109254;28;19956;-68
2022/06/14 00:32:55;;;;;;;;;;;24.90;99.90;;;;;;5106145;28;19912;-68
2022/06/14 00:35:20;;;;;;;;;;;24.90;99.90;;;;;;5110066;28;19916;-67
2022/06/14 00:37:46;;;;;;;;;;;24.90;99.90;;;;;;5109115;28;19904;-67
2022/06/14 00:40:15;;;;;;;;;;;24.90;99.90;;;;;;5106821;28;19907;-67
2022/06/14 00:42:40;;;;;;;;;;;24.80;99.90;;;;;;5110214;28;19912;-67
2022/06/14 00:45:10;;;;;;;;;;;24.80;99.90;;;;;;5112146;28;19972;-68
2022/06/14 00:47:38;;;;;;;;;;;24.80;99.90;;;;;;5098838;28;19911;-68
2022/06/14 00:50:06;;;;;;;;;;;24.80;99.90;;;;;;5112054;28;19982;-67
2022/06/14 00:52:38;;;;;;;;;;;24.70;99.90;;;;;;5107239;28;19904;-67
2022/06/14 00:55:09;;;;;;;;;;;24.70;99.90;;;;;;5111891;28;19952;-66
2022/06/14 00:57:43;;;;;;;;;;;24.60;99.90;;;;;;5096687;27;19907;-68
2022/06/14 01:00:14;;;;;;;;;;;24.70;99.90;;;;;;5105083;28;19907;-68
2022/06/14 01:02:54;;;;;;;;;;;24.70;99.90;;;;;;5108205;28;20456;-68
2022/06/14 01:05:26;;;;;;;;;;;24.60;99.90;;;;;;5105786;28;19945;-67
2022/06/14 01:07:54;;;;;;;;;;;24.50;99.90;;;;;;5105970;28;19963;-67
2022/06/14 01:10:24;;;;;;;;;;;24.60;99.90;;;;;;5111448;28;19960;-67
2022/06/14 01:12:52;;;;;;;;;;;24.60;99.90;;;;;;5107699;28;19956;-67
2022/06/14 01:15:19;;;;;;;;;;;24.50;99.90;;;;;;5105800;28;20068;-68
2022/06/14 01:17:47;;;;;;;;;;;24.50;99.90;;;;;;5104906;28;19911;-68
2022/06/14 01:20:15;;;;;;;;;;;24.50;99.90;;;;;;5106477;28;19949;-68
2022/06/14 01:22:41;;;;;;;;;;;24.40;99.90;;;;;;5105904;28;19918;-67
2022/06/14 01:25:07;;;;;;;;;;;24.40;99.90;;;;;;5109686;28;20321;-68
2022/06/14 01:27:35;;;;;;;;;;;24.30;99.90;;;;;;5101470;28;19999;-68
2022/06/14 01:30:06;;;;;;;;;;;24.30;99.90;;;;;;5109249;28;19925;-66
2022/06/14 01:32:33;;;;;;;;;;;24.30;99.90;;;;;;5109542;28;20369;-67
2022/06/14 01:35:01;;;;;;;;;;;24.20;99.90;;;;;;5105894;28;20335;-67
2022/06/14 01:37:26;;;;;;;;;;;24.20;99.90;;;;;;5108727;28;19973;-66
2022/06/14 01:39:53;;;;;;;;;;;24.20;99.90;;;;;;5108871;28;19915;-66
2022/06/14 01:42:25;;;;;;;;;;;24.20;99.90;;;;;;5102579;28;19933;-67
2022/06/14 01:44:53;;;;;;;;;;;24.20;99.90;;;;;;5106112;28;19911;-67
2022/06/14 01:47:19;;;;;;;;;;;24.20;99.90;;;;;;5105992;28;20413;-67
2022/06/14 01:52:38;;;;;;;;;;;24.10;99.90;;;;;;5109913;28;19976;-66
2022/06/14 01:55:22;;;;;;;;;;;24.10;99.90;;;;;;5106862;28;19960;-69
2022/06/14 01:57:55;;;;;;;;;;;24.10;99.90;;;;;;5102907;28;19986;-68
2022/06/14 02:00:28;;;;;;;;;;;24.00;99.90;;;;;;5110231;28;19927;-68
2022/06/14 02:04:37;;;;;;;;;;;24.00;99.90;;;;;;5107029;28;19907;-68
2022/06/14 02:05:46;;;;;;;;;;;24.00;99.90;;;;;;5110973;28;19903;-68
2022/06/14 02:08:16;;;;;;;;;;;24.00;99.90;;;;;;5104296;28;19951;-67
2022/06/14 02:10:49;;;;;;;;;;;24.00;99.90;;;;;;5108011;28;19968;-67
2022/06/14 02:13:14;;;;;;;;;;;24.00;99.90;;;;;;5108066;28;20277;-67
2022/06/14 02:15:40;;;;;;;;;;;24.00;99.90;;;;;;5107848;28;19912;-66
2022/06/14 02:18:07;;;;;;;;;;;23.90;99.90;;;;;;5107664;28;20250;-67
2022/06/14 02:20:38;;;;;;;;;;;23.90;99.90;;;;;;5105568;28;19914;-68
2022/06/14 02:23:06;;;;;;;;;;;23.80;99.90;;;;;;5108896;28;20369;-68
2022/06/14 02:25:38;;;;;;;;;;;23.80;99.90;;;;;;5111824;28;19957;-68
2022/06/14 02:28:17;;;;;;;;;;;23.80;99.90;;;;;;5103819;28;20358;-68
2022/06/14 02:30:46;;;;;;;;;;;23.80;99.90;;;;;;5108516;28;19908;-69
2022/06/14 02:33:16;;;;;;;;;;;23.80;99.90;;;;;;5114049;28;19922;-66
2022/06/14 02:35:50;;;;;;;;;;;23.70;99.90;;;;;;5093734;28;20474;-67
2022/06/14 02:38:21;;;;;;;;;;;23.70;99.90;;;;;;5109889;28;20050;-67
2022/06/14 02:40:46;;;;;;;;;;;23.70;99.90;;;;;;5108355;28;19943;-67
2022/06/14 02:43:31;;;;;;;;;;;23.70;99.90;;;;;;5103266;28;20426;-68
2022/06/14 02:46:12;;;;;;;;;;;23.70;99.90;;;;;;5106587;28;19914;-68
2022/06/14 02:48:46;;;;;;;;;;;23.70;99.90;;;;;;5106038;28;19933;-67
2022/06/14 02:51:20;;;;;;;;;;;23.70;99.90;;;;;;5110532;28;19908;-67
2022/06/14 02:53:50;;;;;;;;;;;23.70;99.90;;;;;;5103933;28;19919;-67
2022/06/14 02:56:22;;;;;;;;;;;23.70;99.90;;;;;;5107733;28;19960;-69
2022/06/14 02:58:50;;;;;;;;;;;23.70;99.90;;;;;;5104147;28;19952;-68
2022/06/14 03:01:22;;;;;;;;;;;23.70;99.90;;;;;;5096231;28;19908;-67
2022/06/14 03:03:51;;;;;;;;;;;23.70;99.90;;;;;;5106643;28;20293;-67
2022/06/14 03:06:36;;;;;;;;;;;23.70;99.90;;;;;;5102675;28;20276;-68
2022/06/14 03:09:04;;;;;;;;;;;23.70;99.90;;;;;;5105770;28;20004;-68
2022/06/14 03:11:29;;;;;;;;;;;23.70;99.90;;;;;;5107590;28;19907;-67
2022/06/14 03:14:14;;;;;;;;;;;23.70;99.90;;;;;;5103435;28;19919;-66
2022/06/14 03:16:42;;;;;;;;;;;23.60;99.90;;;;;;5106480;28;20006;-70
2022/06/14 03:19:11;;;;;;;;;;;23.50;99.90;;;;;;5107069;28;19908;-69
2022/06/14 03:21:46;;;;;;;;;;;23.40;99.90;;;;;;5111401;28;19907;-68
2022/06/14 03:24:24;;;;;;;;;;;23.30;99.90;;;;;;5113609;28;19904;-67
2022/06/14 03:26:49;;;;;;;;;;;23.40;99.90;;;;;;5104805;28;19961;-66
2022/06/14 03:29:20;;;;;;;;;;;23.40;99.90;;;;;;5109113;28;20335;-68
2022/06/14 03:31:46;;;;;;;;;;;23.40;99.90;;;;;;5106846;28;19907;-68
2022/06/14 03:34:24;;;;;;;;;;;23.20;99.90;;;;;;5112221;28;20490;-68
2022/06/14 03:36:51;;;;;;;;;;;23.20;99.90;;;;;;5110182;28;20285;-67
2022/06/14 03:39:19;;;;;;;;;;;23.20;99.90;;;;;;5108083;28;20022;-68
2022/06/14 03:41:46;;;;;;;;;;;23.10;99.90;;;;;;5111374;28;20289;-67
2022/06/14 03:44:12;;;;;;;;;;;23.00;99.90;;;;;;5111078;28;19969;-67
2022/06/14 03:46:40;;;;;;;;;;;23.00;99.90;;;;;;5108401;28;19915;-68
2022/06/14 03:49:09;;;;;;;;;;;23.00;99.90;;;;;;5109577;28;20279;-68
2022/06/14 03:51:43;;;;;;;;;;;23.00;99.90;;;;;;5099233;28;19908;-68
2022/06/14 03:54:08;;;;;;;;;;;23.10;99.90;;;;;;5108509;28;19908;-67
2022/06/14 03:56:43;;;;;;;;;;;23.10;99.90;;;;;;5109391;28;19911;-68
2022/06/14 03:59:16;;;;;;;;;;;23.10;99.90;;;;;;5111141;28;19919;-67
2022/06/14 04:01:47;;;;;;;;;;;22.90;99.90;;;;;;5103047;28;19939;-68
2022/06/14 04:04:19;;;;;;;;;;;22.70;99.90;;;;;;5110855;28;19908;-68
2022/06/14 04:07:01;;;;;;;;;;;22.50;99.90;;;;;;5109515;28;19915;-67
2022/06/14 04:09:46;;;;;;;;;;;22.40;99.90;;;;;;5108500;28;19907;-68
2022/06/14 04:12:28;;;;;;;;;;;22.30;99.90;;;;;;5110727;28;19907;-67
2022/06/14 04:14:57;;;;;;;;;;;22.30;99.90;;;;;;5112780;28;19903;-67
2022/06/14 04:17:42;;;;;;;;;;;22.30;99.90;;;;;;5109892;28;20064;-68
2022/06/14 04:20:16;;;;;;;;;;;22.40;99.90;;;;;;5104841;28;19908;-67
2022/06/14 04:22:45;;;;;;;;;;;22.50;99.90;;;;;;5108760;28;19914;-67
2022/06/14 04:25:32;;;;;;;;;;;22.50;99.90;;;;;;5112760;28;19975;-68
2022/06/14 04:28:07;;;;;;;;;;;22.50;99.90;;;;;;5106484;28;20339;-68
2022/06/14 04:30:39;;;;;;;;;;;22.60;99.90;;;;;;5109567;28;20081;-67
2022/06/14 04:33:11;;;;;;;;;;;22.60;99.90;;;;;;5110715;27;19954;-66
2022/06/14 04:35:40;;;;;;;;;;;22.70;99.90;;;;;;5110513;28;19908;-67
2022/06/14 04:38:08;;;;;;;;;;;22.60;99.90;;;;;;5112524;28;20395;-68
2022/06/14 04:40:46;;;;;;;;;;;22.60;99.90;;;;;;5111095;28;19907;-68
2022/06/14 04:43:16;;;;;;;;;;;22.60;99.90;;;;;;5112994;28;19915;-67
2022/06/14 04:45:55;;;;;;;;;;;22.60;99.90;;;;;;5109119;28;19984;-68
2022/06/14 04:48:23;;;;;;;;;;;22.60;99.90;;;;;;5106739;28;19915;-68
2022/06/14 04:50:59;;;;;;;;;;;22.60;99.90;;;;;;5105313;28;19915;-68
2022/06/14 04:53:37;;;;;;;;;;;22.50;99.90;;;;;;5110789;28;19908;-68
2022/06/14 04:56:04;;;;;;;;;;;22.40;99.90;;;;;;5107723;28;19942;-67
2022/06/14 04:58:42;;;;;;;;;;;22.50;99.90;;;;;;5109149;28;19960;-65
2022/06/14 05:01:11;;;;;;;;;;;22.50;99.90;;;;;;5106446;28;19961;-67
2022/06/14 05:03:39;;;;;;;;;;;22.60;99.90;;;;;;5105620;28;19908;-69
2022/06/14 05:06:18;;;;;;;;;;;22.50;99.90;;;;;;5110204;28;19923;-68
2022/06/14 05:08:46;;;;;;;;;;;22.60;99.90;;;;;;5107978;28;20168;-67
2022/06/14 05:11:30;;;;;;;;;;;22.60;99.90;;;;;;5110599;28;19914;-68
2022/06/14 05:13:56;;;;;;;;;;;22.60;99.90;;;;;;5105149;28;19916;-68
2022/06/14 05:16:32;;;;;;;;;;;22.60;99.90;;;;;;5102483;28;19915;-66
2022/06/14 05:19:03;;;;;;;;;;;22.30;99.90;;;;;;5108249;28;19911;-67
2022/06/14 05:21:31;;;;;;;;;;;22.10;99.90;;;;;;5108004;28;19948;-66
2022/06/14 05:23:58;;;;;;;;;;;22.10;99.90;;;;;;5111188;28;19904;-66
2022/06/14 05:26:29;;;;;;;;;;;22.20;99.90;;;;;;5113222;28;19911;-68
2022/06/14 05:29:04;;;;;;;;;;;22.10;99.90;;;;;;5102745;28;19923;-69
2022/06/14 05:31:45;;;;;;;;;;;22.10;99.90;;;;;;5110194;28;19907;-68
2022/06/14 05:34:23;;;;;;;;;;;22.30;99.90;;;;;;5108402;28;20026;-67
2022/06/14 05:36:49;;;;;;;;;;;22.40;99.90;;;;;;5103617;28;19911;-66
2022/06/14 05:39:19;;;;;;;;;;;22.40;99.90;;;;;;5107010;28;20297;-68
2022/06/14 05:41:50;;;;;;;;;;;22.40;99.90;;;;;;5111587;28;19910;-68
2022/06/14 05:44:20;;;;;;;;;;;22.50;99.90;;;;;;5105054;28;19933;-68
2022/06/14 05:46:50;;;;;;;;;;;22.50;99.90;;;;;;5108352;28;20010;-68
2022/06/14 05:49:29;;;;;;;;;;;22.40;99.90;;;;;;5106264;28;19908;-68
2022/06/14 05:52:04;;;;;;;;;;;22.30;99.90;;;;;;5111454;28;20357;-67
2022/06/14 05:54:32;;;;;;;;;;;22.20;99.90;;;;;;5111663;28;19904;-68
2022/06/14 05:57:05;;;;;;;;;;;22.30;99.90;;;;;;5111986;28;19908;-67
2022/06/14 05:59:40;;;;;;;;;;;22.40;99.90;;;;;;5103140;28;19915;-67
2022/06/14 06:02:06;;;;;;;;;;;22.50;99.90;;;;;;5109556;28;19910;-68
2022/06/14 06:04:52;;;;;;;;;;;22.40;99.90;;;;;;5112349;28;19990;-67
2022/06/14 06:07:22;;;;;;;;;;;22.60;99.90;;;;;;5111402;28;20036;-68
2022/06/14 06:09:51;;;;;;;;;;;22.70;99.90;;;;;;5105915;28;19964;-68
2022/06/14 06:12:22;;;;;;;;;;;22.80;99.90;;;;;;5110548;28;19938;-68
2022/06/14 06:15:06;;;;;;;;;;;22.80;99.90;;;;;;5107509;28;19908;-69
2022/06/14 06:17:40;;;;;;;;;;;22.90;99.90;;;;;;5108243;28;20384;-69
2022/06/14 06:20:18;;;;;;;;;;;22.90;99.90;;;;;;5112749;27;19908;-67
2022/06/14 06:23:03;;;;;;;;;;;22.90;99.90;;;;;;5109918;27;19914;-69
2022/06/14 06:25:31;;;;;;;;;;;23.00;99.90;;;;;;5108931;28;19907;-68
2022/06/14 06:28:17;;;;;;;;;;;23.00;99.90;;;;;;5107465;28;19904;-69
2022/06/14 06:30:54;;;;;;;;;;;23.00;99.90;;;;;;5109911;28;19950;-68
2022/06/14 06:33:21;;;;;;;;;;;23.20;99.90;;;;;;5108700;28;19961;-68
2022/06/14 06:35:46;;;;;;;;;;;23.20;99.90;;;;;;5102744;28;19907;-67
2022/06/14 06:38:27;;;;;;;;;;;23.30;99.90;;;;;;5110266;28;19904;-69
2022/06/14 06:43:43;;;;;;;;;;;23.40;99.90;;;;;;5107956;28;19930;-68
2022/06/14 06:46:11;;;;;;;;;;;23.40;99.90;;;;;;5109903;28;19907;-69
2022/06/14 06:48:43;;;;;;;;;;;23.60;99.90;;;;;;5110633;28;19908;-68
2022/06/14 06:51:10;;;;;;;;;;;23.80;99.90;;;;;;5097576;28;19915;-69
2022/06/14 06:53:40;;;;;;;;;;;23.80;99.90;;;;;;5113787;28;19980;-68
2022/06/14 06:56:06;;;;;;;;;;;23.80;99.90;;;;;;5110196;27;19963;-67
2022/06/14 06:58:34;;;;;;;;;;;23.80;99.90;;;;;;5112550;28;19907;-67
2022/06/14 07:01:02;;;;;;;;;;;23.80;99.90;;;;;;5118898;27;19920;-67
2022/06/14 07:03:27;;;;;;;;;;;23.90;99.90;;;;;;5110337;28;19907;-67
2022/06/14 07:05:57;;;;;;;;;;;24.00;99.90;;;;;;5108570;28;19952;-67
2022/06/14 07:08:43;;;;;;;;;;;24.20;99.90;;;;;;5110209;28;19907;-66
2022/06/14 07:11:13;;;;;;;;;;;24.20;99.90;;;;;;5108461;28;19979;-67
2022/06/14 07:13:44;;;;;;;;;;;24.20;99.90;;;;;;5110323;28;19908;-67
2022/06/14 07:16:13;;;;;;;;;;;24.30;99.90;;;;;;5109434;28;19915;-67
2022/06/14 07:18:45;;;;;;;;;;;24.20;99.90;;;;;;5108348;28;19912;-67
2022/06/14 07:21:15;;;;;;;;;;;24.30;99.90;;;;;;5106147;28;19919;-66
2022/06/14 07:23:50;;;;;;;;;;;24.30;99.90;;;;;;5110420;28;19939;-67
2022/06/14 07:26:35;;;;;;;;;;;24.40;99.90;;;;;;5110755;28;19904;-69
2022/06/14 07:29:10;;;;;;;;;;;24.40;99.90;;;;;;5103473;28;19908;-70
2022/06/14 07:31:35;;;;;;;;;;;24.50;99.90;;;;;;5109356;28;20418;-69
2022/06/14 07:34:01;;;;;;;;;;;24.40;99.90;;;;;;5108726;28;19919;-71
2022/06/14 07:36:36;;;;;;;;;;;24.50;99.90;;;;;;5107259;28;20273;-71
2022/06/14 07:39:14;;;;;;;;;;;24.60;99.90;;;;;;5106443;28;19915;-70
2022/06/14 07:42:09;;;;;;;;;;;24.70;99.90;;;;;;5108328;28;19904;-71
2022/06/14 07:44:43;;;;;;;;;;;24.70;99.90;;;;;;5049080;28;20454;-70
2022/06/14 07:47:16;;;;;;;;;;;24.80;99.90;;;;;;5107113;28;19912;-70
2022/06/14 07:49:44;;;;;;;;;;;24.80;99.90;;;;;;5108209;28;20283;-71
2022/06/14 07:52:15;;;;;;;;;;;24.90;99.90;;;;;;5109942;28;19912;-70
2022/06/14 07:54:43;;;;;;;;;;;24.90;99.90;;;;;;5103883;28;19908;-70
2022/06/14 07:57:11;;;;;;;;;;;25.00;99.90;;;;;;5104799;28;19963;-70
2022/06/14 07:59:43;;;;;;;;;;;25.10;99.90;;;;;;5105813;28;19969;-71
2022/06/14 08:02:08;;;;;;;;;;;24.90;99.90;;;;;;5104660;28;20009;-71
2022/06/14 08:04:39;;;;;;;;;;;24.80;99.90;;;;;;5112471;28;20020;-70
2022/06/14 08:07:07;;;;;;;;;;;24.90;99.90;;;;;;5110153;28;19904;-70
2022/06/14 08:09:40;;;;;;;;;;;25.00;99.90;;;;;;5110463;28;20002;-71
2022/06/14 08:12:10;;;;;;;;;;;24.90;99.90;;;;;;5109927;28;19908;-71
2022/06/14 08:14:47;;;;;;;;;;;24.70;99.90;;;;;;5112200;28;19911;-71
2022/06/14 08:17:18;;;;;;;;;;;25.00;99.90;;;;;;5107353;28;19923;-71
2022/06/14 08:19:45;;;;;;;;;;;25.00;99.90;;;;;;5102905;27;19908;-70
2022/06/14 08:22:17;;;;;;;;;;;24.90;99.90;;;;;;5109773;28;19946;-71
2022/06/14 08:24:48;;;;;;;;;;;25.00;99.90;;;;;;5112822;28;19904;-71
2022/06/14 08:27:20;;;;;;;;;;;25.30;99.90;;;;;;5112913;28;19910;-73
2022/06/14 08:30:04;;;;;;;;;;;25.10;99.90;;;;;;5107656;28;19966;-70
2022/06/14 08:32:45;;;;;;;;;;;25.20;99.90;;;;;;5109128;28;19931;-69
2022/06/14 08:35:23;;;;;;;;;;;25.30;99.90;;;;;;5114267;28;20270;-68
2022/06/14 08:37:59;;;;;;;;;;;25.30;99.90;;;;;;5109967;28;19907;-68
2022/06/14 08:40:43;;;;;;;;;;;25.30;99.90;;;;;;5107735;28;19907;-69
2022/06/14 08:43:09;;;;;;;;;;;25.20;99.90;;;;;;5105800;28;19983;-68
2022/06/14 08:45:38;;;;;;;;;;;25.40;99.90;;;;;;5112239;28;19904;-68
2022/06/14 08:48:10;;;;;;;;;;;25.40;99.90;;;;;;5112461;28;19904;-67
2022/06/14 08:51:09;;;;;;;;;;;25.50;99.90;;;;;;5109479;28;19908;-67
2022/06/14 08:53:53;;;;;;;;;;;25.50;99.90;;;;;;5069113;28;20254;-66
2022/06/14 08:56:28;;;;;;;;;;;25.60;99.90;;;;;;5113783;28;19911;-66
2022/06/14 08:58:59;;;;;;;;;;;25.50;99.90;;;;;;5109334;28;19904;-66
2022/06/14 09:01:44;;;;;;;;;;;25.70;99.90;;;;;;5105078;28;19908;-66
2022/06/14 09:04:19;;;;;;;;;;;25.90;99.90;;;;;;5111141;28;19964;-66
2022/06/14 09:06:55;;;;;;;;;;;25.90;99.90;;;;;;5102592;28;20460;-68
2022/06/14 09:09:30;;;;;;;;;;;25.80;99.90;;;;;;5100098;28;19916;-67
2022/06/14 09:12:17;;;;;;;;;;;25.70;99.90;;;;;;5096439;28;19918;-67
2022/06/14 09:14:46;;;;;;;;;;;25.80;99.90;;;;;;5104077;27;19915;-67
2022/06/14 09:17:15;;;;;;;;;;;26.10;99.90;;;;;;5103948;28;19966;-68
2022/06/14 09:20:00;;;;;;;;;;;26.30;99.90;;;;;;5111095;28;19998;-68
2022/06/14 09:22:54;;;;;;;;;;;26.50;99.90;;;;;;5107669;28;19907;-67
2022/06/14 09:25:38;;;;;;;;;;;26.60;99.90;;;;;;5086994;28;20415;-66
2022/06/14 09:28:22;;;;;;;;;;;26.50;99.90;;;;;;5099398;28;19908;-66
2022/06/14 09:30:54;;;;;;;;;;;26.70;99.90;;;;;;5104332;27;20321;-66
2022/06/14 09:33:39;;;;;;;;;;;26.70;99.90;;;;;;5105029;28;19912;-67
2022/06/14 09:36:23;;;;;;;;;;;26.70;99.90;;;;;;5112023;28;19964;-66
2022/06/14 09:39:04;;;;;;;;;;;26.60;99.90;;;;;;5104306;28;20000;-66
2022/06/14 09:41:48;;;;;;;;;;;26.70;99.90;;;;;;5105152;28;19957;-68
2022/06/14 09:44:20;;;;;;;;;;;26.70;99.90;;;;;;5103382;27;20006;-69
2022/06/14 09:46:56;;;;;;;;;;;26.60;99.90;;;;;;5110279;28;19904;-69
2022/06/14 09:49:42;;;;;;;;;;;26.80;99.90;;;;;;5110786;28;19908;-66
2022/06/14 09:52:27;;;;;;;;;;;26.80;99.90;;;;;;5090758;28;20268;-67
2022/06/14 09:54:52;;;;;;;;;;;26.90;99.90;;;;;;5090389;28;19959;-66
2022/06/14 09:57:36;;;;;;;;;;;26.90;99.90;;;;;;5090261;28;20391;-67
2022/06/14 10:00:21;;;;;;;;;;;27.10;99.90;;;;;;5102614;28;20388;-68
2022/06/14 10:03:08;;;;;;;;;;;27.40;99.90;;;;;;5110483;28;19923;-68
2022/06/14 10:05:43;;;;;;;;;;;27.50;99.90;;;;;;5109366;28;19914;-67
2022/06/14 10:08:15;;;;;;;;;;;27.50;99.90;;;;;;5104718;28;19957;-67
2022/06/14 10:10:50;;;;;;;;;;;27.40;99.90;;;;;;5105910;28;20314;-66
2022/06/14 10:13:24;;;;;;;;;;;27.40;99.90;;;;;;5108874;28;19915;-65
2022/06/14 10:15:58;;;;;;;;;;;27.40;99.90;;;;;;5109139;28;19931;-67
2022/06/14 10:18:39;;;;;;;;;;;27.40;99.90;;;;;;5109196;28;19904;-67
2022/06/14 10:21:11;;;;;;;;;;;27.40;99.90;;;;;;5098636;28;19943;-67
2022/06/14 10:23:43;;;;;;;;;;;27.60;99.90;;;;;;5095920;28;19914;-66
2022/06/14 10:29:32;;;;;;;;;;;27.30;99.90;;;;;;5104470;28;19915;-67
2022/06/14 10:32:04;;;;;;;;;;;27.50;99.90;;;;;;5107904;28;20023;-68
2022/06/14 10:34:48;;;;;;;;;;;27.50;99.90;;;;;;5105540;28;19918;-66
2022/06/14 10:37:26;;;;;;;;;;;27.50;99.90;;;;;;5108206;28;20031;-67
2022/06/14 10:39:58;;;;;;;;;;;27.50;99.90;;;;;;5106136;28;19908;-66
2022/06/14 10:42:26;;;;;;;;;;;27.50;99.90;;;;;;5108927;28;20392;-67
2022/06/14 10:45:01;;;;;;;;;;;27.60;99.90;;;;;;5105664;28;19938;-67
2022/06/14 10:47:46;;;;;;;;;;;27.90;99.90;;;;;;5105421;28;19994;-66
2022/06/14 10:50:15;;;;;;;;;;;27.80;99.90;;;;;;5108444;28;19907;-66
2022/06/14 10:52:50;;;;;;;;;;;27.60;99.90;;;;;;5109919;28;19908;-67
2022/06/14 10:55:15;;;;;;;;;;;27.70;99.90;;;;;;5106960;28;19908;-70
2022/06/14 10:57:50;;;;;;;;;;;27.80;99.90;;;;;;5100907;27;20044;-69
2022/06/14 11:00:19;;;;;;;;;;;27.80;99.90;;;;;;5094285;28;19908;-67
2022/06/14 11:03:03;;;;;;;;;;;28.00;99.90;;;;;;5098132;28;19933;-67
2022/06/14 11:05:38;;;;;;;;;;;28.30;99.90;;;;;;5109800;28;19930;-66
2022/06/14 11:08:04;;;;;;;;;;;28.30;99.90;;;;;;5106513;28;19994;-67
2022/06/14 11:10:44;;;;;;;;;;;28.30;99.90;;;;;;5105236;28;20428;-65
2022/06/14 11:13:16;;;;;;;;;;;28.10;99.90;;;;;;5107311;28;20330;-66
2022/06/14 11:16:11;;;;;;;;;;;28.30;99.90;;;;;;5110035;28;20340;-67
2022/06/14 11:18:42;;;;;;;;;;;28.30;99.90;;;;;;5053305;28;20358;-67
2022/06/14 11:21:20;;;;;;;;;;;28.40;99.90;;;;;;5108412;28;19968;-69
2022/06/14 11:23:58;;;;;;;;;;;28.60;99.90;;;;;;5109934;28;20381;-68
2022/06/14 11:26:31;;;;;;;;;;;28.80;99.90;;;;;;5109582;28;19903;-66
2022/06/14 11:29:00;;;;;;;;;;;28.80;99.90;;;;;;5109752;28;19911;-69
2022/06/14 11:31:26;;;;;;;;;;;28.70;99.90;;;;;;5107604;28;20266;-67
2022/06/14 11:34:10;;;;;;;;;;;28.60;99.90;;;;;;5110686;28;19922;-67
2022/06/14 11:36:36;;;;;;;;;;;28.50;99.90;;;;;;5113116;28;19915;-67
2022/06/14 11:39:17;;;;;;;;;;;28.80;99.90;;;;;;5109519;28;19908;-67
2022/06/14 11:41:45;;;;;;;;;;;28.90;99.90;;;;;;5109470;28;19907;-66
2022/06/14 11:44:29;;;;;;;;;;;29.00;99.90;;;;;;5114745;28;20338;-66
2022/06/14 11:47:05;;;;;;;;;;;28.70;99.90;;;;;;5110623;28;19922;-65
2022/06/14 11:49:37;;;;;;;;;;;28.70;99.90;;;;;;5108523;28;19965;-65
2022/06/14 11:52:19;;;;;;;;;;;28.70;99.90;;;;;;5109849;28;19956;-65
2022/06/14 11:54:53;;;;;;;;;;;28.90;99.90;;;;;;5113309;28;19976;-67
2022/06/14 11:57:30;;;;;;;;;;;28.70;99.90;;;;;;5111023;28;19908;-67
2022/06/14 12:00:23;;;;;;;;;;;28.90;99.90;;;;;;5106443;28;19951;-65
2022/06/14 12:02:57;;;;;;;;;;;28.90;99.90;;;;;;5085116;28;19932;-65
2022/06/14 12:05:31;;;;;;;;;;;29.20;99.90;;;;;;5108934;28;19912;-66
2022/06/14 12:08:04;;;;;;;;;;;29.40;99.90;;;;;;5106521;28;19958;-65
2022/06/14 12:10:44;;;;;;;;;;;29.30;99.30;;;;;;5104264;28;20357;-67
2022/06/14 12:13:28;;;;;;;;;;;29.40;99.70;;;;;;5112529;28;20277;-65
2022/06/14 12:16:03;;;;;;;;;;;29.60;99.30;;;;;;5106398;28;19908;-65
2022/06/14 12:18:30;;;;;;;;;;;29.50;99.80;;;;;;5110406;28;19908;-66
2022/06/14 12:21:17;;;;;;;;;;;29.10;99.90;;;;;;5113778;28;19956;-69
2022/06/14 12:23:45;;;;;;;;;;;29.10;99.90;;;;;;5112324;28;19912;-66
2022/06/14 12:29:01;;;;;;;;;;;29.60;99.90;;;;;;5110576;28;19915;-65
2022/06/14 12:31:26;;;;;;;;;;;29.50;99.90;;;;;;5111216;28;19907;-67
2022/06/14 12:33:56;;;;;;;;;;;29.90;99.90;;;;;;5110457;28;19920;-68
2022/06/14 12:36:21;;;;;;;;;;;30.10;99.60;;;;;;5111000;28;20292;-67
2022/06/14 12:38:49;;;;;;;;;;;30.10;99.40;;;;;;5109944;28;19908;-66
2022/06/14 12:41:21;;;;;;;;;;;30.20;99.40;;;;;;5109937;28;19935;-69
2022/06/14 12:44:01;;;;;;;;;;;29.90;99.50;;;;;;5111241;28;19908;-66
2022/06/14 12:46:29;;;;;;;;;;;29.80;99.90;;;;;;5110878;28;19957;-67
2022/06/14 12:49:00;;;;;;;;;;;30.00;99.80;;;;;;5112194;28;20353;-67
2022/06/14 12:51:30;;;;;;;;;;;30.20;99.40;;;;;;5110740;28;19994;-68
2022/06/14 12:53:57;;;;;;;;;;;30.50;99.20;;;;;;5110458;28;19950;-67
2022/06/14 12:56:34;;;;;;;;;;;30.50;99.10;;;;;;5110495;28;20374;-70
2022/06/14 12:59:03;;;;;;;;;;;30.40;98.60;;;;;;5110060;28;19961;-66
2022/06/14 13:01:29;;;;;;;;;;;30.30;98.30;;;;;;5108932;28;19914;-65
2022/06/14 13:03:59;;;;;;;;;;;30.20;98.40;;;;;;5109507;28;19907;-65
2022/06/14 13:06:34;;;;;;;;;;;30.10;98.20;;;;;;5110007;28;19907;-65
2022/06/14 13:09:09;;;;;;;;;;;30.20;98.30;;;;;;5111146;28;20397;-66
2022/06/14 13:11:34;;;;;;;;;;;30.20;98.40;;;;;;5110446;28;19915;-69
2022/06/14 13:14:04;;;;;;;;;;;30.20;98.30;;;;;;5111955;28;20319;-67
2022/06/14 13:16:32;;;;;;;;;;;30.20;98.50;;;;;;5110583;28;20373;-68
2022/06/14 13:19:03;;;;;;;;;;;30.30;98.30;;;;;;5109421;28;20410;-67
2022/06/14 13:21:50;;;;;;;;;;;30.30;98.50;;;;;;5109238;28;20353;-66
2022/06/14 13:24:25;;;;;;;;;;;30.40;98.80;;;;;;5112583;28;20415;-67
2022/06/14 13:27:04;;;;;;;;;;;30.30;98.20;;;;;;5112318;28;19922;-66
2022/06/14 13:29:39;;;;;;;;;;;30.30;98.40;;;;;;5111061;28;19914;-66
2022/06/14 13:32:24;;;;;;;;;;;30.40;98.40;;;;;;5112353;28;19953;-67
2022/06/14 13:34:52;;;;;;;;;;;30.50;98.00;;;;;;5108571;28;19911;-66
2022/06/14 13:37:21;;;;;;;;;;;30.40;98.10;;;;;;5112185;28;19908;-63
2022/06/14 13:40:00;;;;;;;;;;;30.40;97.80;;;;;;5110001;28;19904;-66
2022/06/14 13:42:31;;;;;;;;;;;30.40;98.00;;;;;;5106669;28;19939;-65
2022/06/14 13:45:04;;;;;;;;;;;30.50;98.40;;;;;;5107062;28;19958;-66
2022/06/14 13:47:40;;;;;;;;;;;30.40;97.70;;;;;;5110356;28;19911;-65
2022/06/14 13:50:18;;;;;;;;;;;30.40;98.00;;;;;;5111397;28;20570;-64
2022/06/14 13:52:55;;;;;;;;;;;30.40;97.60;;;;;;5112026;28;19994;-66
2022/06/14 13:55:27;;;;;;;;;;;30.40;98.00;;;;;;5110429;28;19955;-65
2022/06/14 13:58:12;;;;;;;;;;;30.50;98.60;;;;;;5108805;28;20289;-65
2022/06/14 14:00:49;;;;;;;;;;;30.60;97.90;;;;;;5105003;28;19911;-66
2022/06/14 14:03:27;;;;;;;;;;;30.60;97.50;;;;;;5108753;28;19922;-66
2022/06/14 14:05:59;;;;;;;;;;;30.60;97.80;;;;;;5113805;27;19915;-67
2022/06/14 14:08:44;;;;;;;;;;;30.60;97.90;;;;;;5109633;27;19920;-65
2022/06/14 14:11:24;;;;;;;;;;;30.70;98.10;;;;;;5108875;27;19945;-66
2022/06/14 14:13:58;;;;;;;;;;;30.70;97.60;;;;;;5112614;27;20347;-66
2022/06/14 14:16:31;;;;;;;;;;;30.30;97.80;;;;;;5115702;27;20288;-65
2022/06/14 14:19:21;;;;;;;;;;;30.20;97.50;;;;;;5125000;27;20470;-67
2022/06/14 14:21:50;;;;;;;;;;;29.40;99.90;;;;;;5088789;28;19920;-70
2022/06/14 14:24:36;;;;;;;;;;;28.70;99.90;;;;;;5095157;28;19908;-68
2022/06/14 14:27:18;;;;;;;;;;;28.10;99.90;;;;;;5105393;28;19918;-68
2022/06/14 14:29:48;;;;;;;;;;;27.50;99.90;;;;;;5107983;28;19927;-68
2022/06/14 14:32:30;;;;;;;;;;;27.40;99.90;;;;;;5099361;28;20297;-69
2022/06/14 14:35:06;;;;;;;;;;;27.20;99.90;;;;;;5098361;28;19959;-70
2022/06/14 14:37:47;;;;;;;;;;;27.10;99.90;;;;;;5102635;28;19912;-67
2022/06/14 14:40:17;;;;;;;;;;;27.30;99.90;;;;;;5090789;28;19919;-72
2022/06/14 14:42:55;;;;;;;;;;;27.40;99.90;;;;;;5105901;28;19931;-67
2022/06/14 14:45:20;;;;;;;;;;;27.50;99.90;;;;;;5103812;28;19939;-69
2022/06/14 14:47:57;;;;;;;;;;;27.60;99.90;;;;;;5097505;28;20000;-69
2022/06/14 14:50:35;;;;;;;;;;;27.60;99.90;;;;;;5102084;28;19903;-69
2022/06/14 14:53:00;;;;;;;;;;;27.60;99.90;;;;;;5103288;28;19919;-71
2022/06/14 14:55:29;;;;;;;;;;;27.50;99.90;;;;;;5110413;27;19912;-67
2022/06/14 14:57:58;;;;;;;;;;;27.50;99.90;;;;;;5109119;28;19912;-68
2022/06/14 15:05:20;;;;;;;;;;;27.50;99.90;;;;;;5106623;28;20448;-67
2022/06/14 15:06:04;;;;;;;;;;;27.50;99.90;;;;;;5107803;28;20403;-69